Lost Pines, Texas
Current Conditions -  °F | °C
As of 3:53 PM on Monday 20 Oct 2014 (Local Time) from KAUS Reporting Station
Scattered Clouds Scattered Clouds  
Wind Chill: 81°   Ceiling: Unl
Heat Index: 81°   Visibility: 10mi
Dew Point: 58°   Wind: 3mph
Humidity: 45%   Direction: NA
Pressure: 30"   Gusts: NA
Location:  30.0889°N, 97.4792°W
Report Text: KAUS 202053Z VRB03KT 10SM SCT048 SCT250 27/14 A3000 RMK AO2 SLP151 T02720144 56023
Loading
Personal Weather Stations






























Interactive Weather Map
Tropical Storm Tracking
New forecast layout! Learn more

10-Day Weather Forecast

Advertisements
Track Severe Weather on mobile